createdAt,value
2023-04-12T00:01:06.589Z,7.3
2023-04-12T00:02:22.000Z,7.5
2023-04-12T00:03:38.000Z,7.4
2023-04-12T00:04:55.033Z,7.5
2023-04-12T00:06:09.000Z,7.6
2023-04-12T00:07:26.339Z,7.7
2023-04-12T00:08:42.000Z,7.8
2023-04-12T00:09:58.000Z,7.7
2023-04-12T00:11:14.000Z,7.7
2023-04-12T00:12:30.000Z,7.7
2023-04-12T00:13:46.000Z,7.7
2023-04-12T00:15:02.000Z,7.9
2023-04-12T00:16:17.000Z,7.7
2023-04-12T00:17:32.587Z,7.5
2023-04-12T00:18:47.000Z,7.5
2023-04-12T00:20:03.000Z,7.4
2023-04-12T00:21:19.823Z,7.5
2023-04-12T00:22:35.000Z,7.5
2023-04-12T00:23:52.000Z,7.6
2023-04-12T00:25:08.000Z,7.8
2023-04-12T00:26:24.632Z,7.8
2023-04-12T00:27:40.783Z,7.8
2023-04-12T00:28:56.929Z,7.5
2023-04-12T00:30:12.000Z,7
2023-04-12T00:31:28.000Z,6.6
2023-04-12T00:32:45.369Z,6.4
2023-04-12T00:34:01.517Z,6.5
2023-04-12T00:35:16.000Z,6.4
2023-04-12T00:36:32.000Z,6.3
2023-04-12T00:37:48.973Z,6.2
2023-04-12T00:39:04.000Z,6
2023-04-12T00:40:21.000Z,6.2
2023-04-12T00:41:37.000Z,6.3
2023-04-12T00:42:53.000Z,6.5
2023-04-12T00:44:08.000Z,6.7
2023-04-12T00:45:23.000Z,7
2023-04-12T00:46:39.000Z,7.4
2023-04-12T00:47:54.000Z,7.5
2023-04-12T00:49:10.000Z,7.7
2023-04-12T00:50:26.000Z,7.9
2023-04-12T00:51:42.000Z,8.2
2023-04-12T00:52:58.000Z,8.2
2023-04-12T00:54:14.000Z,8.2
2023-04-12T00:55:30.000Z,8.4
2023-04-12T00:56:47.000Z,8.4
2023-04-12T00:58:03.000Z,8.5
2023-04-12T00:59:19.563Z,8.6
2023-04-12T01:00:35.000Z,8.8
2023-04-12T01:01:51.000Z,8.9
2023-04-12T01:03:07.000Z,9
2023-04-12T01:04:23.000Z,9.2
2023-04-12T01:05:39.000Z,9.3
2023-04-12T01:06:55.000Z,9.4
2023-04-12T01:08:11.000Z,9.6
2023-04-12T01:09:27.000Z,9.2
2023-04-12T01:10:43.000Z,9.1
2023-04-12T01:11:59.000Z,9
2023-04-12T01:13:15.000Z,8.9
2023-04-12T01:14:31.371Z,8.9
2023-04-12T01:15:46.000Z,9.1
2023-04-12T01:17:02.685Z,9.1
2023-04-12T01:18:18.000Z,9.3
2023-04-12T01:20:51.128Z,10.2
2023-04-12T01:22:07.000Z,11.1
2023-04-12T01:23:23.000Z,10.8
2023-04-12T01:24:39.000Z,10.2
2023-04-12T01:25:55.000Z,9.8
2023-04-12T01:27:11.859Z,9.2
2023-04-12T01:28:28.014Z,8.9
2023-04-12T01:29:44.154Z,8.5
2023-04-12T01:31:00.000Z,8.2
2023-04-12T01:32:15.000Z,8.2
2023-04-12T01:33:31.612Z,8
2023-04-12T01:34:47.000Z,7.9
2023-04-12T01:36:03.900Z,7.7
2023-04-12T01:37:20.051Z,7.4
2023-04-12T01:38:35.000Z,7.3
2023-04-12T01:39:52.353Z,6.6
2023-04-12T01:41:08.000Z,6.2
2023-04-12T01:43:39.000Z,5.9
2023-04-12T01:44:54.000Z,5.8
2023-04-12T01:46:09.000Z,5.8
2023-04-12T01:47:25.000Z,5.6
2023-04-12T01:48:40.000Z,5.7
2023-04-12T01:49:56.000Z,5.8
2023-04-12T01:51:12.788Z,5.8
2023-04-12T01:52:28.927Z,5.8
2023-04-12T01:53:44.000Z,5.8
2023-04-12T01:55:00.000Z,5.9
2023-04-12T01:56:17.000Z,5.9
2023-04-12T01:57:33.521Z,5.8
2023-04-12T01:58:49.000Z,5.9
2023-04-12T02:00:05.806Z,5.9
2023-04-12T02:01:21.000Z,5.9
2023-04-12T02:02:37.000Z,5.8
2023-04-12T02:03:54.000Z,5.7
2023-04-12T02:05:10.401Z,5.7
2023-04-12T02:06:25.000Z,5.6
2023-04-12T02:07:41.000Z,5.8
2023-04-12T02:08:57.000Z,6.1
2023-04-12T02:10:12.000Z,6.9
2023-04-12T02:11:29.172Z,6.9
2023-04-12T02:12:45.000Z,7.3
2023-04-12T02:14:00.000Z,7.6
2023-04-12T02:15:15.000Z,8
2023-04-12T02:16:31.799Z,8.5
2023-04-12T02:17:46.000Z,9.1
2023-04-12T02:19:01.000Z,9.5
2023-04-12T02:20:18.000Z,10.3
2023-04-12T02:21:34.000Z,10.8
2023-04-12T02:22:50.000Z,11.8
2023-04-12T02:24:06.000Z,12.7
2023-04-12T02:25:22.880Z,13.9
2023-04-12T02:26:38.000Z,14.6
2023-04-12T02:27:54.000Z,15.3
2023-04-12T02:29:11.000Z,15.9
2023-04-12T02:30:27.000Z,16.9
2023-04-12T02:31:43.000Z,17.9
2023-04-12T02:32:59.000Z,18.4
2023-04-12T02:34:15.000Z,19.2
2023-04-12T02:35:30.000Z,19.5
2023-04-12T02:36:47.220Z,19.7
2023-04-12T02:38:03.000Z,19.8
2023-04-12T02:39:19.510Z,20.1
2023-04-12T02:40:35.658Z,20.3
2023-04-12T02:41:51.000Z,19.7
2023-04-12T02:43:07.000Z,19.9
2023-04-12T02:44:22.000Z,20.1
2023-04-12T02:45:38.000Z,20.2
2023-04-12T02:46:53.000Z,20.8
2023-04-12T02:48:09.000Z,21.7
2023-04-12T02:49:24.000Z,22.8
2023-04-12T02:50:40.000Z,23.9
2023-04-12T02:51:56.000Z,24.2
2023-04-12T02:53:12.000Z,24.9
2023-04-12T02:54:29.359Z,25.2
2023-04-12T02:55:45.000Z,25.7
2023-04-12T02:57:01.000Z,25.8
2023-04-12T02:58:17.000Z,25.5
2023-04-12T02:59:33.000Z,26.1
2023-04-12T03:00:49.000Z,25.8
2023-04-12T03:02:06.000Z,26.4
2023-04-12T03:03:22.000Z,26.5
2023-04-12T03:04:38.000Z,27
2023-04-12T03:05:53.000Z,27.2
2023-04-12T03:07:09.849Z,27.4
2023-04-12T03:08:25.000Z,28
2023-04-12T03:09:41.000Z,28.3
2023-04-12T03:10:58.000Z,28.4
2023-04-12T03:12:14.440Z,29.4
2023-04-12T03:13:29.000Z,29.9
2023-04-12T03:14:44.768Z,31
2023-04-12T03:15:59.000Z,31.9
2023-04-12T03:17:15.110Z,32.6
2023-04-12T03:18:31.000Z,33.1
2023-04-12T03:19:47.000Z,33.6
2023-04-12T03:21:03.000Z,34.2
2023-04-12T03:22:19.697Z,34.8
2023-04-12T03:23:35.000Z,35.5
2023-04-12T03:24:51.000Z,35.6
2023-04-12T03:26:08.136Z,35.8
2023-04-12T03:27:24.000Z,36.1
2023-04-12T03:28:40.000Z,36.9
2023-04-12T03:29:56.000Z,37.3
2023-04-12T03:31:12.000Z,37.5
2023-04-12T03:32:28.875Z,38.1
2023-04-12T03:33:44.029Z,38.4
2023-04-12T03:34:59.000Z,38.6
2023-04-12T03:36:16.000Z,38.7
2023-04-12T03:37:32.000Z,39.5
2023-04-12T03:38:48.000Z,40.1
2023-04-12T03:40:04.000Z,40.4
2023-04-12T03:41:20.000Z,40.2
2023-04-12T03:42:36.087Z,40.2
2023-04-12T03:43:51.000Z,40.4
2023-04-12T03:45:06.000Z,40.6
2023-04-12T03:46:21.583Z,41
2023-04-12T03:47:37.729Z,41.3
2023-04-12T03:48:53.000Z,41.2
2023-04-12T03:50:09.000Z,41.3
2023-04-12T03:51:25.000Z,41.2
2023-04-12T03:52:42.000Z,41.1
2023-04-12T03:53:58.000Z,41.3
2023-04-12T03:55:14.000Z,41.3
2023-04-12T03:56:30.000Z,41.4
2023-04-12T03:57:46.909Z,41.7
2023-04-12T03:59:02.000Z,42
2023-04-12T04:00:18.000Z,42.1
2023-04-12T04:01:35.357Z,42.1
2023-04-12T04:02:50.000Z,42.6
2023-04-12T04:04:06.000Z,42.5
2023-04-12T04:05:22.000Z,42.5
2023-04-12T04:06:38.000Z,42.6
2023-04-12T04:07:54.000Z,42.6
2023-04-12T04:09:11.000Z,42.7
2023-04-12T04:10:27.000Z,42.3
2023-04-12T04:11:42.000Z,42
2023-04-12T04:12:57.000Z,42.4
2023-04-12T04:14:12.000Z,42.9
2023-04-12T04:15:27.000Z,43
2023-04-12T04:16:44.214Z,43.3
2023-04-12T04:18:00.374Z,43.5
2023-04-12T04:19:16.000Z,43.7
2023-04-12T04:20:32.000Z,43.6
2023-04-12T04:21:48.000Z,43.6
2023-04-12T04:23:04.000Z,43.7
2023-04-12T04:24:20.000Z,44.2
2023-04-12T04:25:37.242Z,44.4
2023-04-12T04:26:53.000Z,44.9
2023-04-12T04:28:09.000Z,45
2023-04-12T04:30:41.000Z,46.5
2023-04-12T04:31:56.989Z,46.9
2023-04-12T04:33:12.000Z,47.5
2023-04-12T04:34:29.000Z,48
2023-04-12T04:35:45.000Z,48.5
2023-04-12T04:37:01.000Z,50
2023-04-12T04:38:17.726Z,52.4
2023-04-12T04:39:33.000Z,53.7
2023-04-12T04:40:49.000Z,55.5
2023-04-12T04:42:05.189Z,57.3
2023-04-12T04:43:20.000Z,58.3
2023-04-12T04:44:35.000Z,58.2
2023-04-12T04:45:50.000Z,58.4
2023-04-12T04:47:06.000Z,59.6
2023-04-12T04:48:22.000Z,59.8
2023-04-12T04:49:38.000Z,61.1
2023-04-12T04:50:55.000Z,62.1
2023-04-12T04:52:11.000Z,62.9
2023-04-12T04:53:27.000Z,64.8
2023-04-12T04:54:43.000Z,66
2023-04-12T04:55:59.000Z,66.2
2023-04-12T04:57:15.000Z,66.6
2023-04-12T04:58:31.000Z,66.8
2023-04-12T04:59:48.000Z,67.8
2023-04-12T05:01:04.000Z,67.7
2023-04-12T05:02:19.000Z,68
2023-04-12T05:03:35.000Z,68.2
2023-04-12T05:04:51.000Z,70
2023-04-12T05:06:07.000Z,71.3
2023-04-12T05:07:23.000Z,71.5
2023-04-12T05:08:40.000Z,72.9
2023-04-12T05:09:56.000Z,73.1
2023-04-12T05:11:11.000Z,74.1
2023-04-12T05:12:26.000Z,74.3
2023-04-12T05:13:41.000Z,74.9
2023-04-12T05:14:56.000Z,76
2023-04-12T05:16:13.000Z,76.9
2023-04-12T05:17:29.000Z,76.7
2023-04-12T05:18:45.000Z,76.3
2023-04-12T05:20:01.000Z,75.8
2023-04-12T05:21:17.000Z,76.3
2023-04-12T05:22:33.000Z,76.5
2023-04-12T05:23:49.000Z,76.9
2023-04-12T05:25:06.000Z,77.3
2023-04-12T05:26:22.000Z,77.3
2023-04-12T05:27:38.000Z,77.5
2023-04-12T05:28:54.000Z,78.1
2023-04-12T05:30:10.000Z,77.6
2023-04-12T05:31:25.000Z,78.6
2023-04-12T05:32:42.000Z,80.1
2023-04-12T05:33:58.000Z,79.3
2023-04-12T05:35:14.528Z,79.9
2023-04-12T05:36:30.000Z,79.3
2023-04-12T05:37:46.000Z,80.5
2023-04-12T05:39:02.000Z,79.3
2023-04-12T05:40:17.000Z,79.8
2023-04-12T05:41:33.000Z,80.2
2023-04-12T05:42:48.000Z,80.1
2023-04-12T05:44:04.000Z,79.5
2023-04-12T05:45:19.000Z,80.2
2023-04-12T05:46:35.000Z,81.4
2023-04-12T05:47:51.000Z,80.9
2023-04-12T05:49:08.000Z,81.2
2023-04-12T05:50:24.000Z,82.4
2023-04-12T05:51:40.000Z,82.5
2023-04-12T05:52:56.000Z,82.9
2023-04-12T05:54:12.000Z,83.7
2023-04-12T05:55:28.000Z,84.5
2023-04-12T05:56:44.000Z,84.4
2023-04-12T05:58:01.000Z,83
2023-04-12T05:59:17.000Z,84
2023-04-12T06:00:33.000Z,82.3
2023-04-12T06:01:48.000Z,82.2
2023-04-12T06:03:04.000Z,86.4
2023-04-12T06:04:20.000Z,86.7
2023-04-12T06:05:36.000Z,86.9
2023-04-12T06:06:53.000Z,90.7
2023-04-12T06:09:25.000Z,88.3
2023-04-12T06:10:40.000Z,88.8
2023-04-12T06:11:55.935Z,89.7
2023-04-12T06:13:11.000Z,90.8
2023-04-12T06:14:27.000Z,91.6
2023-04-12T06:15:42.000Z,89.7
2023-04-12T06:16:58.000Z,88.9
2023-04-12T06:18:14.000Z,93.3
2023-04-12T06:19:30.864Z,90.2
2023-04-12T06:20:46.000Z,91.1
2023-04-12T06:22:02.000Z,95.6
2023-04-12T06:23:19.000Z,93.2
2023-04-12T06:25:50.000Z,99
2023-04-12T06:27:05.000Z,97
2023-04-12T06:28:21.000Z,98.7
2023-04-12T06:29:37.000Z,96.4
2023-04-12T06:30:54.000Z,98.7
2023-04-12T06:32:10.000Z,99.2
2023-04-12T06:33:26.000Z,99.2
2023-04-12T06:34:42.000Z,99.3
2023-04-12T06:35:58.000Z,100
2023-04-12T06:37:14.000Z,99.6
2023-04-12T06:38:30.000Z,100
2023-04-12T06:39:47.000Z,100
2023-04-12T06:41:03.000Z,100
2023-04-12T06:42:18.000Z,100
2023-04-12T06:44:49.000Z,100
2023-04-12T06:46:04.000Z,100
2023-04-12T06:47:20.000Z,100
2023-04-12T06:48:36.000Z,100
2023-04-12T06:49:52.000Z,100
2023-04-12T06:51:08.000Z,100
2023-04-12T06:52:24.000Z,100
2023-04-12T06:53:40.000Z,100
2023-04-12T06:54:57.105Z,100
2023-04-12T06:56:13.000Z,100
2023-04-12T06:57:29.000Z,100
2023-04-12T06:58:45.000Z,100
2023-04-12T07:00:01.000Z,100
2023-04-12T07:01:17.000Z,100
2023-04-12T07:02:33.000Z,100
2023-04-12T07:03:48.000Z,100
2023-04-12T07:05:05.000Z,100
2023-04-12T07:06:21.000Z,100
2023-04-12T07:07:37.000Z,100
2023-04-12T07:08:53.000Z,100
2023-04-12T07:10:09.000Z,100
2023-04-12T07:11:25.000Z,100
2023-04-12T07:12:40.000Z,100
2023-04-12T07:13:56.000Z,100
2023-04-12T07:15:11.000Z,100
2023-04-12T07:16:26.000Z,100
2023-04-12T07:17:42.000Z,100
2023-04-12T07:18:58.000Z,100
2023-04-12T07:20:14.000Z,100
2023-04-12T07:21:31.000Z,100
2023-04-12T07:22:47.000Z,100
2023-04-12T07:24:03.000Z,100
2023-04-12T07:25:19.000Z,100
2023-04-12T07:26:35.000Z,100
2023-04-12T07:29:07.000Z,100
2023-04-12T07:30:24.000Z,100
2023-04-12T07:31:40.000Z,100
2023-04-12T07:32:55.000Z,100
2023-04-12T07:34:11.000Z,100
2023-04-12T07:35:27.000Z,100
2023-04-12T07:36:43.000Z,100
2023-04-12T07:37:59.000Z,100
2023-04-12T07:39:16.000Z,100
2023-04-12T07:41:48.000Z,100
2023-04-12T07:43:04.000Z,100
2023-04-12T07:44:19.000Z,100
2023-04-12T07:45:34.000Z,100
2023-04-12T07:46:50.000Z,100
2023-04-12T07:48:05.000Z,100
2023-04-12T07:49:21.000Z,100
2023-04-12T07:50:37.000Z,100
2023-04-12T07:51:53.000Z,99.3
2023-04-12T07:53:09.000Z,100
2023-04-12T07:54:25.000Z,100
2023-04-12T07:55:42.000Z,100
2023-04-12T07:56:58.000Z,100
2023-04-12T07:58:14.000Z,100
2023-04-12T07:59:30.000Z,100
2023-04-12T08:00:46.000Z,100
2023-04-12T08:02:02.000Z,98.9
2023-04-12T08:03:19.000Z,100
2023-04-12T08:04:34.000Z,100
2023-04-12T08:05:50.000Z,98.8
2023-04-12T08:07:06.687Z,100
2023-04-12T08:08:22.000Z,100
2023-04-12T08:09:38.000Z,99.3
2023-04-12T08:10:54.000Z,100
2023-04-12T08:12:11.000Z,100
2023-04-12T08:13:26.000Z,100
2023-04-12T08:14:41.000Z,98.2
2023-04-12T08:15:57.000Z,100
2023-04-12T08:17:13.000Z,100
2023-04-12T08:18:29.000Z,100
2023-04-12T08:19:45.000Z,100
2023-04-12T08:21:02.000Z,99.4
2023-04-12T08:22:18.000Z,100
2023-04-12T08:23:34.000Z,100
2023-04-12T08:24:50.000Z,100
2023-04-12T08:26:06.000Z,100
2023-04-12T08:27:22.000Z,100
2023-04-12T08:28:38.000Z,100
2023-04-12T08:29:55.000Z,100
2023-04-12T08:31:10.000Z,100
2023-04-12T08:32:26.000Z,100
2023-04-12T08:33:42.000Z,100
2023-04-12T08:34:58.000Z,100
2023-04-12T08:36:14.000Z,99.8
2023-04-12T08:37:31.000Z,100
2023-04-12T08:38:47.000Z,100
2023-04-12T08:40:02.000Z,98.6
2023-04-12T08:41:17.000Z,99.3
2023-04-12T08:42:32.000Z,99
2023-04-12T08:43:47.000Z,100
2023-04-12T08:45:03.000Z,100
2023-04-12T08:46:18.396Z,100
2023-04-12T08:47:34.000Z,100
2023-04-12T08:48:50.000Z,100
2023-04-12T08:50:06.000Z,95.9
2023-04-12T08:51:22.000Z,99.8
2023-04-12T08:52:38.000Z,100
2023-04-12T08:53:55.000Z,95.1
2023-04-12T08:55:11.000Z,95.1
2023-04-12T08:56:27.000Z,95.8
2023-04-12T08:57:43.000Z,98.4
2023-04-12T08:58:59.000Z,97.1
2023-04-12T09:00:15.000Z,99.8
2023-04-12T09:01:32.131Z,98
2023-04-12T09:02:47.000Z,95.8
2023-04-12T09:04:03.000Z,96.8
2023-04-12T09:05:19.000Z,96.5
2023-04-12T09:06:35.000Z,97.5
2023-04-12T09:07:51.000Z,100
2023-04-12T09:09:08.024Z,100
2023-04-12T09:10:23.000Z,94.6
2023-04-12T09:11:39.000Z,100
2023-04-12T09:12:54.000Z,99.5
2023-04-12T09:14:10.655Z,98.9
2023-04-12T09:15:26.000Z,98.4
2023-04-12T09:16:42.000Z,100
2023-04-12T09:17:58.000Z,100
2023-04-12T09:19:15.000Z,100
2023-04-12T09:20:31.000Z,100
2023-04-12T09:21:47.000Z,100
2023-04-12T09:23:03.000Z,100
2023-04-12T09:24:19.000Z,100
2023-04-12T09:25:35.000Z,98.3
2023-04-12T09:26:51.000Z,100
2023-04-12T09:28:08.000Z,99
2023-04-12T09:29:23.000Z,99.7
2023-04-12T09:30:39.000Z,98.4
2023-04-12T09:31:55.704Z,100
2023-04-12T09:33:11.000Z,100
2023-04-12T09:34:27.989Z,98.4
2023-04-12T09:35:43.000Z,100
2023-04-12T09:37:00.000Z,98
2023-04-12T09:38:15.000Z,99.3
2023-04-12T09:39:30.000Z,97.2
2023-04-12T09:40:45.000Z,100
2023-04-12T09:42:00.000Z,100
2023-04-12T09:43:15.000Z,100
2023-04-12T09:44:31.000Z,99.4
2023-04-12T09:45:47.000Z,96
2023-04-12T09:47:03.000Z,99.4
2023-04-12T09:48:19.000Z,99.2
2023-04-12T09:49:35.000Z,100
2023-04-12T09:50:52.014Z,99.3
2023-04-12T09:52:07.000Z,99.8
2023-04-12T09:53:24.000Z,100
2023-04-12T09:54:40.000Z,100
2023-04-12T09:55:56.591Z,100
2023-04-12T09:57:12.000Z,100
2023-04-12T09:58:28.000Z,100
2023-04-12T09:59:44.000Z,100
2023-04-12T10:00:59.000Z,100
2023-04-12T10:02:16.000Z,98.6
2023-04-12T10:03:32.000Z,99.2
2023-04-12T10:04:48.000Z,100
2023-04-12T10:06:04.776Z,100
2023-04-12T10:07:20.910Z,100
2023-04-12T10:08:36.000Z,100
2023-04-12T10:09:52.000Z,100
2023-04-12T10:11:07.000Z,100
2023-04-12T10:12:23.000Z,100
2023-04-12T10:13:39.000Z,100
2023-04-12T10:14:55.000Z,100
2023-04-12T10:16:11.981Z,100
2023-04-12T10:17:27.000Z,100
2023-04-12T10:18:44.000Z,100
2023-04-12T10:20:00.000Z,100
2023-04-12T10:21:16.000Z,97.4
2023-04-12T10:22:32.000Z,100
2023-04-12T10:23:48.000Z,100
2023-04-12T10:25:04.000Z,100
2023-04-12T10:26:20.000Z,100
2023-04-12T10:27:36.000Z,100
2023-04-12T10:28:52.000Z,100
2023-04-12T10:30:08.587Z,100
2023-04-12T10:31:24.000Z,100
2023-04-12T10:32:40.000Z,97.2
2023-04-12T10:33:56.000Z,100
2023-04-12T10:35:12.000Z,98.1
2023-04-12T10:36:28.000Z,100
2023-04-12T10:37:43.000Z,100
2023-04-12T10:38:58.000Z,100
2023-04-12T10:40:13.000Z,100
2023-04-12T10:41:28.000Z,100
2023-04-12T10:42:43.000Z,100
2023-04-12T10:44:00.000Z,98.6
2023-04-12T10:45:16.000Z,97.5
2023-04-12T10:46:32.000Z,100
2023-04-12T10:47:48.000Z,100
2023-04-12T10:49:04.914Z,100
2023-04-12T10:50:20.000Z,100
2023-04-12T10:52:53.000Z,100
2023-04-12T10:54:09.000Z,100
2023-04-12T10:55:25.000Z,99.3
2023-04-12T10:56:41.781Z,99.3
2023-04-12T10:57:57.000Z,98.6
2023-04-12T10:59:13.082Z,97.6
2023-04-12T11:00:29.000Z,99.8
2023-04-12T11:01:45.376Z,100
2023-04-12T11:03:01.000Z,100
2023-04-12T11:04:17.000Z,100
2023-04-12T11:05:33.000Z,100
2023-04-12T11:06:49.000Z,100
2023-04-12T11:08:05.000Z,100
2023-04-12T11:09:21.000Z,100
2023-04-12T11:10:36.000Z,100
2023-04-12T11:11:51.617Z,100
2023-04-12T11:13:06.000Z,100
2023-04-12T11:14:22.921Z,100
2023-04-12T11:15:39.068Z,100
2023-04-12T11:16:54.000Z,100
2023-04-12T11:18:11.000Z,100
2023-04-12T11:19:27.504Z,100
2023-04-12T11:20:43.000Z,100
2023-04-12T11:21:59.000Z,100
2023-04-12T11:23:15.000Z,100
2023-04-12T11:24:31.000Z,100
2023-04-12T11:25:48.000Z,100
2023-04-12T11:27:04.000Z,100
2023-04-12T11:28:20.000Z,100
2023-04-12T11:29:35.000Z,100
2023-04-12T11:30:51.824Z,100
2023-04-12T11:32:07.000Z,100
2023-04-12T11:33:23.000Z,100
2023-04-12T11:34:40.000Z,100
2023-04-12T11:35:56.000Z,100
2023-04-12T11:37:12.000Z,98.9
2023-04-12T11:38:27.000Z,100
2023-04-12T11:39:42.000Z,99.5
2023-04-12T11:40:58.000Z,97
2023-04-12T11:42:14.000Z,98.3
2023-04-12T11:43:31.000Z,97.1
2023-04-12T11:44:47.000Z,96.8
2023-04-12T11:46:03.000Z,96.7
2023-04-12T11:47:19.000Z,93.7
2023-04-12T11:48:35.000Z,91.9
2023-04-12T11:49:51.000Z,91.6
2023-04-12T11:51:07.000Z,95.8
2023-04-12T11:52:24.000Z,92.5
2023-04-12T11:53:40.000Z,88.3
2023-04-12T11:54:56.000Z,87.3
2023-04-12T11:56:11.791Z,88.9
2023-04-12T11:57:27.000Z,85.1
2023-04-12T11:58:43.000Z,80.3
2023-04-12T12:00:00.000Z,79
2023-04-12T12:01:16.000Z,82.3
2023-04-12T12:02:32.000Z,78
2023-04-12T12:03:48.000Z,74.6
2023-04-12T12:05:03.000Z,75.1
2023-04-12T12:06:18.000Z,69.6
2023-04-12T12:07:34.165Z,67.8
2023-04-12T12:08:49.332Z,64.8
2023-04-12T12:10:05.000Z,61.8
2023-04-12T12:11:20.000Z,60.4
2023-04-12T12:12:35.000Z,55.6
2023-04-12T12:13:51.000Z,53.2
2023-04-12T12:15:07.000Z,53
2023-04-12T12:16:24.000Z,52.7
2023-04-12T12:17:40.000Z,54.7
2023-04-12T12:18:56.000Z,54.5
2023-04-12T12:20:12.000Z,50.8
2023-04-12T12:21:28.000Z,51.4
2023-04-12T12:22:44.000Z,49.4
2023-04-12T12:24:00.000Z,49.6
2023-04-12T12:25:17.000Z,50.1
2023-04-12T12:26:33.000Z,49
2023-04-12T12:27:49.000Z,51.6
2023-04-12T12:29:04.000Z,46.6
2023-04-12T12:30:20.000Z,49.6
2023-04-12T12:31:37.015Z,47.9
2023-04-12T12:32:52.000Z,44.1
2023-04-12T12:34:09.000Z,44
2023-04-12T12:35:25.000Z,43.2
2023-04-12T12:36:41.000Z,41.6
2023-04-12T12:37:56.000Z,43
2023-04-12T12:39:11.929Z,43.6
2023-04-12T12:40:26.000Z,39.4
2023-04-12T12:41:42.252Z,35.5
2023-04-12T12:42:58.000Z,34.3
2023-04-12T12:44:14.545Z,34.7
2023-04-12T12:45:30.000Z,34.5
2023-04-12T12:46:46.000Z,38.9
2023-04-12T12:48:02.000Z,42.2
2023-04-12T12:49:19.134Z,40.2
2023-04-12T12:50:35.000Z,36.5
2023-04-12T12:51:51.000Z,36.3
2023-04-12T12:53:07.000Z,38.4
2023-04-12T12:54:23.000Z,37
2023-04-12T12:55:39.000Z,34.9
2023-04-12T12:56:55.000Z,34.7
2023-04-12T12:58:10.000Z,33
2023-04-12T12:59:27.000Z,31.2
2023-04-12T13:00:43.000Z,28.6
2023-04-12T13:01:59.000Z,29.7
2023-04-12T13:03:15.000Z,30.1
2023-04-12T13:04:31.891Z,30
2023-04-12T13:05:47.000Z,28.3
2023-04-12T13:07:02.000Z,26.8
2023-04-12T13:08:18.000Z,25.5
2023-04-12T13:09:33.000Z,25.4
2023-04-12T13:10:48.000Z,26.6
2023-04-12T13:12:04.000Z,25.8
2023-04-12T13:13:20.000Z,25.8
2023-04-12T13:14:37.143Z,26.1
2023-04-12T13:15:53.000Z,25.5
2023-04-12T13:17:09.434Z,23.1
2023-04-12T13:18:25.000Z,23.7
2023-04-12T13:19:41.726Z,24.1
2023-04-12T13:20:57.000Z,22.7
2023-04-12T13:22:14.019Z,21.2
2023-04-12T13:23:30.166Z,20.1
2023-04-12T13:24:46.000Z,20.3
2023-04-12T13:26:02.000Z,21.3
2023-04-12T13:27:17.000Z,22.2
2023-04-12T13:28:33.000Z,22.3
2023-04-12T13:29:49.000Z,22.7
2023-04-12T13:31:05.000Z,21.7
2023-04-12T13:32:21.000Z,20.5
2023-04-12T13:33:38.343Z,20.5
2023-04-12T13:34:54.000Z,22
2023-04-12T13:36:09.000Z,21.1
2023-04-12T13:37:24.000Z,20.8
2023-04-12T13:38:40.000Z,21.1
2023-04-12T13:39:57.113Z,19.8
2023-04-12T13:41:12.000Z,19.8
2023-04-12T13:42:27.000Z,19.4
2023-04-12T13:43:43.000Z,19.3
2023-04-12T13:44:59.739Z,18.9
2023-04-12T13:46:15.000Z,20.5
2023-04-12T13:47:31.000Z,20.3
2023-04-12T13:48:48.181Z,18.6
2023-04-12T13:50:04.000Z,18.8
2023-04-12T13:51:20.000Z,17.4
2023-04-12T13:52:36.000Z,17.2
2023-04-12T13:53:52.762Z,15.9
2023-04-12T13:55:08.907Z,14.4
2023-04-12T13:56:24.000Z,14.3
2023-04-12T13:57:40.000Z,14.4
2023-04-12T13:58:56.000Z,14.9
2023-04-12T14:00:12.000Z,15
2023-04-12T14:01:28.000Z,15.5
2023-04-12T14:02:44.000Z,15
2023-04-12T14:04:00.000Z,17.5
2023-04-12T14:05:16.000Z,17.8
2023-04-12T14:06:33.000Z,17
2023-04-12T14:07:48.000Z,16.4
2023-04-12T14:09:03.000Z,20.1
2023-04-12T14:10:19.000Z,20.1
2023-04-12T14:11:34.000Z,18.6
2023-04-12T14:12:49.000Z,19.6
2023-04-12T14:14:05.000Z,19
2023-04-12T14:15:22.000Z,18.5
2023-04-12T14:16:38.000Z,21.4
2023-04-12T14:17:54.000Z,21
2023-04-12T14:19:10.000Z,20.7
2023-04-12T14:20:26.000Z,20.6
2023-04-12T14:21:42.000Z,20.9
2023-04-12T14:22:58.000Z,20
2023-04-12T14:24:15.000Z,18.7
2023-04-12T14:26:47.000Z,18.7
2023-04-12T14:28:03.000Z,17.1
2023-04-12T14:29:18.000Z,16.4
2023-04-12T14:30:35.100Z,16.1
2023-04-12T14:31:51.000Z,15.1
2023-04-12T14:33:07.000Z,13.5
2023-04-12T14:34:23.000Z,12.5
2023-04-12T14:35:39.000Z,12.6
2023-04-12T14:36:55.000Z,11.9
2023-04-12T14:38:11.974Z,11.5
2023-04-12T14:39:26.000Z,11.3
2023-04-12T14:40:42.000Z,10.3
2023-04-12T14:41:58.000Z,9.3
2023-04-12T14:43:13.000Z,8.7
2023-04-12T14:44:28.000Z,8.5
2023-04-12T14:45:44.000Z,8.3
2023-04-12T14:47:00.000Z,7.5
2023-04-12T14:48:16.000Z,6.5
2023-04-12T14:49:33.000Z,5.8
2023-04-12T14:50:49.516Z,5.3
2023-04-12T14:52:05.665Z,5.1
2023-04-12T14:54:37.000Z,4.3
2023-04-12T14:55:52.000Z,4.3
2023-04-12T14:57:09.261Z,3.4
2023-04-12T14:58:25.415Z,2.5
2023-04-12T14:59:41.000Z,2.5
2023-04-12T15:00:57.704Z,1.8
2023-04-12T15:02:13.847Z,1.4
2023-04-12T15:03:30.002Z,1.4
2023-04-12T15:04:46.138Z,0.5
2023-04-12T15:06:02.000Z,0
2023-04-12T15:07:18.000Z,0
2023-04-12T15:08:34.000Z,0
2023-04-12T15:09:50.000Z,0
2023-04-12T15:11:05.000Z,0
2023-04-12T15:12:20.000Z,0
2023-04-12T15:13:36.000Z,0
2023-04-12T15:14:51.000Z,0
2023-04-12T15:16:07.000Z,0
2023-04-12T15:17:23.000Z,0
2023-04-12T15:18:39.000Z,0
2023-04-12T15:19:55.000Z,0
2023-04-12T15:21:11.000Z,0
2023-04-12T15:22:28.261Z,0
2023-04-12T15:23:44.000Z,0
2023-04-12T15:25:00.000Z,0
2023-04-12T15:26:16.000Z,0
2023-04-12T15:27:32.000Z,0
2023-04-12T15:28:48.000Z,0
2023-04-12T15:30:04.000Z,0
2023-04-12T15:31:20.000Z,0
2023-04-12T15:32:36.449Z,0
2023-04-12T15:33:52.592Z,0
2023-04-12T15:35:08.000Z,0
2023-04-12T15:36:24.000Z,0
2023-04-12T15:37:40.000Z,0
2023-04-12T15:38:56.000Z,0
2023-04-12T15:40:12.343Z,0
2023-04-12T15:41:27.000Z,0
2023-04-12T15:42:42.000Z,0
2023-04-12T15:43:57.000Z,0
2023-04-12T15:45:13.000Z,0
2023-04-12T15:46:29.000Z,0
2023-04-12T15:47:46.272Z,0
2023-04-12T15:49:02.000Z,0
2023-04-12T15:50:18.000Z,0
2023-04-12T15:51:34.000Z,0
2023-04-12T15:52:50.000Z,0
2023-04-12T15:54:06.000Z,0
2023-04-12T15:55:22.000Z,0
2023-04-12T15:57:55.000Z,0
2023-04-12T15:59:11.000Z,0
2023-04-12T16:00:26.000Z,0
2023-04-12T16:01:42.000Z,0
2023-04-12T16:02:58.000Z,0
2023-04-12T16:04:14.000Z,0
2023-04-12T16:05:31.000Z,0
2023-04-12T16:06:47.000Z,0
2023-04-12T16:08:03.000Z,0
2023-04-12T16:09:19.000Z,0
2023-04-12T16:10:34.000Z,0
2023-04-12T16:11:49.000Z,0
2023-04-12T16:13:05.000Z,0
2023-04-12T16:14:20.000Z,0
2023-04-12T16:15:36.000Z,0
2023-04-12T16:16:52.000Z,0
2023-04-12T16:18:08.625Z,0
2023-04-12T16:19:25.014Z,0
2023-04-12T16:20:40.000Z,0
2023-04-12T16:21:57.000Z,0
2023-04-12T16:23:13.445Z,0
2023-04-12T16:24:29.000Z,0
2023-04-12T16:25:45.000Z,0
2023-04-12T16:27:01.000Z,0
2023-04-12T16:28:18.035Z,0
2023-04-12T16:29:34.169Z,0
2023-04-12T16:30:49.000Z,0
2023-04-12T16:32:05.000Z,0
2023-04-12T16:33:21.000Z,0
2023-04-12T16:34:37.000Z,0
2023-04-12T16:35:53.000Z,0
2023-04-12T16:37:09.000Z,0
2023-04-12T16:38:25.000Z,0
2023-04-12T16:39:41.000Z,0
2023-04-12T16:40:56.000Z,0
2023-04-12T16:42:11.715Z,0
2023-04-12T16:43:26.874Z,0
2023-04-12T16:44:42.000Z,0
2023-04-12T16:45:58.000Z,0
2023-04-12T16:47:15.000Z,0
2023-04-12T16:48:31.000Z,0
2023-04-12T16:49:47.000Z,0
2023-04-12T16:51:03.000Z,0
2023-04-12T16:52:19.000Z,0
2023-04-12T16:53:35.000Z,0
2023-04-12T16:54:51.000Z,0
2023-04-12T16:56:08.000Z,0
2023-04-12T16:57:24.000Z,0
2023-04-12T16:58:40.000Z,0
2023-04-12T16:59:55.000Z,0
2023-04-12T17:01:11.000Z,0
2023-04-12T17:02:27.000Z,0
2023-04-12T17:03:43.000Z,0
2023-04-12T17:05:00.000Z,0
2023-04-12T17:06:16.000Z,0
2023-04-12T17:07:32.000Z,0
2023-04-12T17:08:47.824Z,0
2023-04-12T17:10:02.000Z,0
2023-04-12T17:11:19.131Z,0
2023-04-12T17:12:35.000Z,0
2023-04-12T17:13:51.000Z,0
2023-04-12T17:15:07.000Z,0
2023-04-12T17:16:23.000Z,0
2023-04-12T17:17:39.000Z,0
2023-04-12T17:18:56.005Z,0
2023-04-12T17:20:11.000Z,0
2023-04-12T17:21:28.000Z,0
2023-04-12T17:22:44.439Z,0
2023-04-12T17:24:00.000Z,0
2023-04-12T17:25:16.000Z,0
2023-04-12T17:26:31.000Z,0
2023-04-12T17:27:48.034Z,0
2023-04-12T17:29:03.000Z,0
2023-04-12T17:30:20.322Z,0
2023-04-12T17:31:36.000Z,0
2023-04-12T17:32:52.612Z,0
2023-04-12T17:34:08.000Z,0
2023-04-12T17:35:23.000Z,0
2023-04-12T17:36:38.000Z,0
2023-04-12T17:37:54.000Z,0